Date,TemperatureHighF,TemperatureAvgF,TemperatureLowF,DewpointHighF,DewpointAvgF,DewpointLowF,HumidityHigh,HumidityAvg,HumidityLow,PressureMaxIn,PressureMinIn,WindSpeedMaxMPH,WindSpeedAvgMPH,GustSpeedMaxMPH,PrecipitationSumIn
2013-1-2,49,47,46,36,34,32,69,60,53,30.19,30.12,12,8,15,0.00
2013-1-6,46,46,45,43,42,41,88,87,85,30.13,30.13,4,3,4,0.10
2013-1-8,52,51,49,46,45,43,85,80,72,30.14,30.11,11,4,11,0.00
2013-1-19,55,54,53,37,36,35,52,50,48,30.15,30.13,12,11,13,0.00
2013-2-1,59,54,45,46,45,43,96,71,59,30.19,30.10,11,6,17,0.00
2013-2-9,46,46,46,32,32,32,58,58,58,30.01,30.01,2,2,2,0.00
2013-2-12,54,49,43,46,43,36,99,81,55,30.33,30.28,6,3,8,0.00
2013-2-25,52,51,51,42,42,41,72,70,66,30.17,30.17,3,1,3,0.00
2013-3-1,64,62,57,52,50,47,84,64,57,30.35,30.22,6,3,11,0.00
2013-3-8,56,50,45,47,44,40,82,79,73,29.91,29.85,5,4,7,0.00
2013-3-17,54,54,54,44,44,44,71,71,71,30.11,30.11,3,3,3,0.00
2013-3-22,59,56,52,45,39,32,65,53,38,30.06,30.01,4,2,0,0.00
2013-3-23,59,52,51,40,34,23,60,50,25,30.08,30.04,8,5,2,0.00
2013-3-30,52,52,51,52,51,51,99,98,96,30.01,29.97,7,3,0,0.10
2013-3-31,56,52,50,55,52,50,100,98,89,30.05,29.96,7,3,5,0.12
2013-4-8,47,47,47,34,34,34,61,61,61,29.91,29.91,8,8,8,0.00
2013-4-17,56,56,56,32,32,32,39,39,39,30.25,30.25,9,9,13,0.00
2013-4-26,57,53,48,51,49,47,95,87,80,30.21,30.15,3,2,4,0.00
2013-5-1,73,58,51,50,44,30,86,65,20,30.05,29.99,8,6,9,0.00
2013-5-16,50,50,50,50,48,47,97,95,91,29.97,29.94,5,4,8,0.00
2013-6-1,69,69,69,53,53,53,56,56,56,29.86,29.86,4,4,4,0.00
2013-6-9,54,53,53,54,53,53,100,100,100,29.84,29.84,6,6,8,0.00
2013-6-15,52,50,48,50,49,48,100,96,92,29.97,29.91,19,4,19,0.00
2013-7-1,57,56,55,54,54,54,95,93,91,29.80,29.80,8,7,8,0.00
2013-7-16,55,54,52,55,54,52,100,100,99,29.99,29.96,7,2,8,0.03
2013-7-28,52,52,52,52,52,52,100,100,100,29.85,29.85,5,4,6,0.00
2013-8-4,52,52,52,52,52,52,100,100,99,29.98,29.95,3,2,5,0.00
2013-10-1,63,62,60,51,50,49,72,66,62,29.92,29.90,4,1,5,0.00
2013-10-10,51,50,49,49,48,47,95,93,91,29.92,29.90,3,2,3,0.00
2013-11-3,56,53,50,42,37,32,69,54,43,29.92,29.90,6,4,6,0.00
2013-11-4,65,57,49,41,33,27,74,41,26,30.03,29.89,13,5,17,0.00
2013-11-5,66,61,54,38,35,31,53,38,32,30.18,30.03,14,4,19,0.00
2013-11-6,63,59,54,40,38,35,54,46,38,30.22,30.13,14,8,16,0.00
2013-11-7,66,61,54,49,43,37,86,53,40,30.14,30.04,7,2,11,0.00
2013-11-8,66,56,48,54,49,40,98,78,54,30.05,29.93,13,3,15,0.00
2013-11-11,60,56,51,53,48,44,93,75,61,30.14,30.07,3,1,4,0.01
2013-11-12,64,59,54,53,50,46,80,71,60,30.24,30.14,11,1,13,0.00
2013-11-13,66,57,49,56,52,48,99,84,66,30.22,30.07,6,3,7,0.00
2013-11-14,61,55,49,54,47,38,100,78,44,30.08,29.86,9,3,13,0.00
2013-11-18,53,50,49,49,40,-100,98,81,44,30.13,30.06,8,2,11,0.01
2013-11-19,54,52,49,54,50,7,100,94,17,30.08,29.90,8,3,11,0.58
2013-11-20,54,52,48,54,49,-100,100,98,100,29.91,29.81,6,2,15,0.81
2013-11-21,56,51,46,48,40,25,100,72,30,29.94,29.87,19,8,35,0.01
2013-11-24,56,53,52,45,41,38,73,62,53,30.22,30.15,2,0,3,0.00
2013-11-25,56,51,45,45,43,41,85,74,58,30.29,30.22,13,7,13,0.00
2013-11-26,54,51,48,44,42,39,79,70,63,30.24,30.01,14,9,17,0.00
2013-11-27,56,52,48,45,44,41,81,72,65,30.01,29.83,14,10,18,0.00
2013-11-28,62,57,53,46,42,40,68,58,45,30.04,29.84,15,5,15,0.00
2013-11-29,62,57,53,51,44,40,81,62,48,30.18,30.04,8,2,9,0.00
2013-11-30,60,55,49,50,46,44,91,73,57,30.24,30.17,6,1,8,0.00
2013-12-1,64,58,50,49,46,44,88,65,54,30.31,30.19,7,2,9,0.00
2013-12-2,60,53,45,52,48,44,98,86,59,30.20,29.93,5,2,6,0.00
2013-12-3,52,47,44,52,36,25,98,66,46,29.92,29.82,11,4,16,0.00
2013-12-4,47,42,40,31,24,18,67,47,38,30.06,29.91,11,6,20,0.00
2013-12-5,43,39,36,29,20,13,65,47,29,30.14,30.05,10,5,11,0.00
2013-12-9,37,37,36,30,29,29,75,74,74,30.39,30.38,9,9,14,0.00
2013-12-10,47,41,34,31,28,23,82,60,38,30.38,30.19,18,10,28,0.00
2013-12-11,48,44,37,33,31,25,81,61,44,30.22,30.16,18,11,20,0.00
2013-12-12,53,46,42,38,34,32,72,63,45,30.23,30.15,16,8,19,0.00
2013-12-13,54,47,41,44,38,30,98,74,40,30.30,30.20,4,2,6,0.00
2013-12-14,50,48,46,42,39,36,82,69,63,30.36,30.28,10,4,19,0.00
2013-12-22,58,57,56,40,39,38,52,51,49,30.26,30.18,5,2,6,0.00
2013-12-23,57,52,47,41,39,37,68,61,52,30.35,30.25,15,8,17,0.00
2013-12-24,62,56,49,44,41,39,70,57,45,30.31,30.18,14,5,16,0.00
2013-12-25,60,54,48,42,39,36,73,57,44,30.25,30.17,21,11,25,0.00
2013-12-26,59,56,52,40,36,32,64,49,40,30.22,30.14,20,12,23,0.00
2013-12-27,55,52,48,40,38,33,72,59,44,30.19,30.10,17,11,20,0.00
2013-12-28,61,54,44,43,34,25,70,47,25,30.12,30.01,12,4,17,0.00
2013-12-29,60,55,50,35,26,21,57,34,24,30.14,30.06,15,10,24,0.00
2013-12-30,57,50,45,46,39,35,98,68,52,30.22,30.13,19,7,19,0.00
2013-12-31,54,49,46,43,40,34,84,70,48,30.23,30.15,7,3,8,0.00